Time;durP1;ratioP1;P1;durP2;ratioP2;P2;SDS_P1;SDS_P2;PMS_P1;PMS_P2;Temp;Humidity;BMP_temperature;BMP_pressure;BME280_temperature;BME280_humidity;BME280_pressure;Samples;Min_cycle;Max_cycle;Signal;HPM_P1;HPM_P2
2022/11/18 00:02:18;;;;;;;18.48;15.68;;;7.10;99.90;;;;;;6248176;22;20049;-84
2022/11/18 00:04:53;;;;;;;;;;;;;;;;;;;;;
2022/11/18 00:07:26;;;;;;;18.00;15.80;;;6.60;99.90;;;;;;6274582;22;20015;-84
2022/11/18 00:09:57;;;;;;;19.67;15.68;;;6.60;99.90;;;;;;6274437;22;20027;-85
2022/11/18 00:15:25;;;;;;;;;;;;;;;;;;;;;
2022/11/18 00:18:17;;;;;;;18.35;15.20;;;6.70;99.90;;;;;;6272738;22;20011;-85
2022/11/18 00:21:03;;;;;;;21.55;16.23;;;6.70;99.90;;;;;;6179585;22;20019;-85
2022/11/18 00:23:36;;;;;;;22.88;16.60;;;6.80;99.90;;;;;;6274487;22;20102;-85
2022/11/18 00:26:43;;;;;;;;;;;;;;;;;;;;;
2022/11/18 00:29:19;;;;;;;19.95;15.90;;;6.70;99.90;;;;;;6274819;22;20026;-85
2022/11/18 00:32:17;;;;;;;19.75;14.95;;;6.70;99.90;;;;;;6272259;22;20394;-84
2022/11/18 00:35:12;;;;;;;;;;;;;;;;;;;;;
2022/11/18 00:38:29;;;;;;;;;;;;;;;;;;;;;
2022/11/18 00:41:15;;;;;;;20.85;15.13;;;6.60;99.90;;;;;;6168774;22;20076;-85
2022/11/18 00:43:51;;;;;;;;;;;;;;;;;;;;;
2022/11/18 00:46:37;;;;;;;23.92;15.90;;;6.80;99.90;;;;;;6273407;22;20026;-85
2022/11/18 00:49:14;;;;;;;20.13;15.35;;;6.60;99.90;;;;;;6250600;22;20075;-84
2022/11/18 00:51:52;;;;;;;;;;;;;;;;;;;;;
2022/11/18 00:54:51;;;;;;;23.50;17.25;;;6.60;99.90;;;;;;6300419;22;20019;-85
2022/11/18 00:57:30;;;;;;;24.42;16.08;;;6.50;99.90;;;;;;6249387;22;20023;-85
2022/11/18 01:00:01;;;;;;;29.00;16.23;;;6.20;99.90;;;;;;6273967;22;20015;-85
2022/11/18 01:02:42;;;;;;;;;;;;;;;;;;;;;
2022/11/18 01:05:24;;;;;;;;;;;;;;;;;;;;;
2022/11/18 01:07:52;;;;;;;22.30;16.23;;;6.60;99.90;;;;;;6272285;22;20023;-85
2022/11/18 01:10:41;;;;;;;21.73;16.73;;;6.50;99.90;;;;;;6274300;22;20023;-85
2022/11/18 01:13:22;;;;;;;25.20;16.33;;;6.40;99.90;;;;;;6238930;22;20018;-85
2022/11/18 01:16:04;;;;;;;;;;;;;;;;;;;;;
2022/11/18 01:19:38;;;;;;;26.25;17.08;;;6.60;99.90;;;;;;6273751;22;20335;-84
2022/11/18 01:25:15;;;;;;;28.08;18.02;;;6.50;99.90;;;;;;6170389;22;20027;-84
2022/11/18 01:27:59;;;;;;;;;;;;;;;;;;;;;
2022/11/18 01:31:27;;;;;;;25.35;17.77;;;6.40;99.90;;;;;;6300624;22;20450;-85
2022/11/18 01:37:08;;;;;;;27.67;17.90;;;6.50;99.90;;;;;;6145586;22;20070;-85
2022/11/18 01:40:03;;;;;;;27.40;18.42;;;6.90;99.90;;;;;;6274755;22;20339;-84
2022/11/18 01:43:18;;;;;;;25.67;17.90;;;6.50;99.90;;;;;;6248498;22;20023;-84
2022/11/18 01:49:08;;;;;;;;;;;;;;;;;;;;;
2022/11/18 01:51:50;;;;;;;27.95;17.67;;;6.40;99.90;;;;;;6268776;22;20452;-85
2022/11/18 01:55:02;;;;;;;;;;;;;;;;;;;;;
2022/11/18 01:58:03;;;;;;;25.83;17.00;;;6.30;99.90;;;;;;6268385;22;20019;-85
2022/11/18 02:01:01;;;;;;;;;;;;;;;;;;;;;
2022/11/18 02:03:53;;;;;;;24.65;16.83;;;6.40;99.90;;;;;;6208819;22;20051;-84
2022/11/18 02:06:55;;;;;;;24.98;16.20;;;6.40;99.90;;;;;;6267653;22;20019;-85
2022/11/18 02:09:52;;;;;;;;;;;;;;;;;;;;;
2022/11/18 02:13:52;;;;;;;;;;;;;;;;;;;;;
2022/11/18 02:16:33;;;;;;;29.48;17.90;;;6.50;99.90;;;;;;6248538;22;20339;-85
2022/11/18 02:20:04;;;;;;;;;;;;;;;;;;;;;
2022/11/18 02:23:36;;;;;;;28.67;17.05;;;6.40;99.90;;;;;;6208877;22;20031;-84
2022/11/18 02:27:05;;;;;;;34.53;16.85;;;6.40;99.90;;;;;;6224299;22;20421;-85
2022/11/18 02:33:09;;;;;;;;;;;;;;;;;;;;;
2022/11/18 02:36:30;;;;;;;;;;;;;;;;;;;;;
2022/11/18 02:39:41;;;;;;;34.60;17.67;;;6.50;99.90;;;;;;6271633;22;20023;-84
2022/11/18 02:42:44;;;;;;;;;;;;;;;;;;;;;
2022/11/18 02:45:27;;;;;;;;;;;;;;;;;;;;;
2022/11/18 02:48:16;;;;;;;31.55;18.13;;;6.20;99.90;;;;;;6269110;22;20028;-84
2022/11/18 02:51:19;;;;;;;;;;;;;;;;;;;;;
2022/11/18 02:54:09;;;;;;;;;;;;;;;;;;;;;
2022/11/18 03:00:47;;;;;;;31.45;18.02;;;6.10;99.90;;;;;;6232730;22;20054;-84
2022/11/18 03:10:00;;;;;;;27.83;16.63;;;6.20;99.90;;;;;;6226884;22;20034;-84
2022/11/18 03:12:57;;;;;;;30.27;17.23;;;6.10;99.90;;;;;;6270232;22;20012;-84
2022/11/18 03:16:06;;;;;;;26.20;15.50;;;6.50;99.90;;;;;;6244869;22;20455;-85
2022/11/18 03:19:44;;;;;;;;;;;;;;;;;;;;;
2022/11/18 03:23:22;;;;;;;26.98;16.20;;;7.00;99.90;;;;;;6215109;22;20022;-85
2022/11/18 03:30:13;;;;;;;24.02;15.35;;;6.20;99.90;;;;;;6202692;22;20034;-85
2022/11/18 03:32:48;;;;;;;24.83;16.27;;;6.20;99.90;;;;;;6253143;22;20024;-84
2022/11/18 03:39:33;;;;;;;;;;;;;;;;;;;;;
2022/11/18 03:43:20;;;;;;;22.67;15.32;;;6.10;99.90;;;;;;6223091;22;20019;-85
2022/11/18 03:49:13;;;;;;;22.42;15.23;;;6.40;99.90;;;;;;6270683;22;20062;-85
2022/11/18 03:52:46;;;;;;;25.20;16.23;;;7.10;99.90;;;;;;6240366;22;20103;-85
2022/11/18 03:55:16;;;;;;;23.73;15.40;;;6.60;99.90;;;;;;6256086;22;20077;-84
2022/11/18 03:58:38;;;;;;;24.40;15.95;;;6.20;99.90;;;;;;6265161;22;20023;-85
2022/11/18 04:02:06;;;;;;;22.10;15.40;;;6.10;99.90;;;;;;6232781;22;20031;-85
2022/11/18 04:04:58;;;;;;;;;;;;;;;;;;;;;
2022/11/18 04:08:14;;;;;;;26.23;15.57;;;6.20;99.90;;;;;;6272307;22;20511;-85
2022/11/18 04:15:01;;;;;;;;;;;;;;;;;;;;;
2022/11/18 04:17:53;;;;;;;;;;;;;;;;;;;;;
2022/11/18 04:20:45;;;;;;;24.17;15.80;;;6.00;99.90;;;;;;6270035;22;20078;-84
2022/11/18 04:30:38;;;;;;;;;;;;;;;;;;;;;
2022/11/18 04:33:40;;;;;;;;;;;;;;;;;;;;;
2022/11/18 04:40:05;;;;;;;21.92;15.40;;;6.50;99.90;;;;;;6170369;22;20042;-84
2022/11/18 04:43:08;;;;;;;;;;;;;;;;;;;;;
2022/11/18 04:45:49;;;;;;;;;;;;;;;;;;;;;
2022/11/18 04:48:24;;;;;;;22.23;14.85;;;6.30;99.90;;;;;;6269905;22;19925;-84
2022/11/18 04:51:12;;;;;;;20.30;14.05;;;6.60;99.90;;;;;;6243959;22;20098;-84
2022/11/18 04:53:48;;;;;;;23.80;14.85;;;6.50;99.90;;;;;;6244002;22;20448;-85
2022/11/18 04:56:24;;;;;;;20.60;14.05;;;5.90;99.90;;;;;;6244771;22;20024;-85
2022/11/18 04:59:05;;;;;;;;;;;;;;;;;;;;;
2022/11/18 05:01:55;;;;;;;22.15;13.18;;;6.00;99.90;;;;;;6269181;22;20053;-84
2022/11/18 05:05:10;;;;;;;20.02;13.90;;;6.00;99.90;;;;;;6270609;22;20090;-84
2022/11/18 05:07:57;;;;;;;21.05;13.38;;;6.70;99.90;;;;;;6269734;22;20023;-85
2022/11/18 05:14:19;;;;;;;;;;;;;;;;;;;;;
2022/11/18 05:17:11;;;;;;;;;;;;;;;;;;;;;
2022/11/18 05:22:58;;;;;;;;;;;;;;;;;;;;;
2022/11/18 05:25:46;;;;;;;22.40;13.57;;;5.80;99.90;;;;;;6270197;22;20058;-84
2022/11/18 05:28:27;;;;;;;;;;;;;;;;;;;;;
2022/11/18 05:31:33;;;;;;;26.13;14.02;;;5.40;99.90;;;;;;6270515;22;20027;-84
2022/11/18 05:34:05;;;;;;;23.40;13.60;;;5.80;99.90;;;;;;6171545;22;20027;-84
2022/11/18 05:36:58;;;;;;;25.15;14.57;;;6.00;99.90;;;;;;6268655;22;20077;-86
2022/11/18 05:39:47;;;;;;;24.85;14.35;;;5.90;99.90;;;;;;6243409;22;20024;-85
2022/11/18 05:45:50;;;;;;;23.60;13.45;;;5.90;99.90;;;;;;6271629;22;20390;-85
2022/11/18 05:48:26;;;;;;;30.80;15.07;;;5.90;99.90;;;;;;6270664;22;20027;-84
2022/11/18 05:51:03;;;;;;;26.50;14.20;;;6.20;99.90;;;;;;6270151;22;20019;-85
2022/11/18 05:54:05;;;;;;;26.45;14.57;;;5.60;99.90;;;;;;6272254;22;20020;-85
2022/11/18 05:57:08;;;;;;;27.52;14.32;;;5.90;99.90;;;;;;6262479;22;20022;-85
2022/11/18 05:59:10;;;;;;;24.95;13.88;;;5.90;99.90;;;;;;6256398;22;20024;-85
2022/11/18 06:01:56;;;;;;;27.90;14.88;;;5.80;99.90;;;;;;6246098;22;20023;-85
2022/11/18 06:05:03;;;;;;;29.83;15.32;;;6.30;99.90;;;;;;6246343;22;20015;-85
2022/11/18 06:08:53;;;;;;;;;;;;;;;;;;;;;
2022/11/18 06:11:08;;;;;;;;;;;;;;;;;;;;;
2022/11/18 06:13:52;;;;;;;;;;;;;;;;;;;;;
2022/11/18 06:16:23;;;;;;;25.48;15.07;;;5.80;99.90;;;;;;6270838;22;20022;-85
2022/11/18 06:19:09;;;;;;;27.80;14.18;;;5.80;99.90;;;;;;6270296;22;20022;-85
2022/11/18 06:21:50;;;;;;;;;;;;;;;;;;;;;
2022/11/18 06:24:52;;;;;;;;;;;;;;;;;;;;;
2022/11/18 06:27:55;;;;;;;;;;;;;;;;;;;;;
2022/11/18 06:30:21;;;;;;;33.17;15.55;;;5.70;99.90;;;;;;6180307;22;20031;-85
2022/11/18 06:32:56;;;;;;;;;;;;;;;;;;;;;
2022/11/18 06:35:28;;;;;;;34.80;16.20;;;5.70;99.90;;;;;;6271296;22;20517;-85
2022/11/18 06:38:09;;;;;;;;;;;;;;;;;;;;;
2022/11/18 06:40:52;;;;;;;30.42;15.02;;;5.80;99.90;;;;;;6270062;22;20023;-85
2022/11/18 06:43:40;;;;;;;34.50;16.85;;;6.80;99.90;;;;;;6271974;22;20015;-85
2022/11/18 06:49:02;;;;;;;27.50;15.82;;;5.70;99.90;;;;;;6270823;22;20412;-85
2022/11/18 06:51:36;;;;;;;31.48;16.02;;;5.70;99.90;;;;;;6271340;22;20090;-85
2022/11/18 06:54:11;;;;;;;34.15;16.00;;;6.10;99.90;;;;;;6269659;22;20026;-85
2022/11/18 06:56:45;;;;;;;39.75;16.52;;;5.80;99.90;;;;;;6271190;22;20091;-85
2022/11/18 06:59:13;;;;;;;33.78;16.55;;;5.80;99.90;;;;;;6271925;22;20336;-86
2022/11/18 07:01:49;;;;;;;37.08;16.63;;;5.90;99.90;;;;;;6243567;22;20023;-86
2022/11/18 07:04:17;;;;;;;43.38;17.95;;;6.00;99.90;;;;;;6246054;22;20495;-85
2022/11/18 07:06:43;;;;;;;36.90;18.30;;;5.80;99.90;;;;;;6270431;22;20357;-85
2022/11/18 07:09:11;;;;;;;40.15;18.75;;;6.10;99.90;;;;;;6271499;22;20020;-85
2022/11/18 07:11:40;;;;;;;42.25;19.48;;;6.80;99.90;;;;;;6244933;22;20105;-85
2022/11/18 07:14:09;;;;;;;37.95;19.85;;;5.80;99.90;;;;;;6270099;22;20328;-86
2022/11/18 07:16:35;;;;;;;42.40;20.48;;;5.80;99.90;;;;;;6270001;22;20027;-85
2022/11/18 07:19:10;;;;;;;43.20;21.65;;;5.60;99.90;;;;;;6245843;22;20483;-85
2022/11/18 07:21:37;;;;;;;39.22;21.77;;;6.40;99.90;;;;;;6269995;22;20054;-85
2022/11/18 07:24:08;;;;;;;40.50;21.55;;;6.60;99.90;;;;;;6270928;22;20016;-85
2022/11/18 07:26:37;;;;;;;41.40;21.88;;;5.60;99.90;;;;;;6271044;22;20019;-86
2022/11/18 07:29:13;;;;;;;;;;;;;;;;;;;;;
2022/11/18 07:32:12;;;;;;;;;;;;;;;;;;;;;
2022/11/18 07:35:22;;;;;;;;;;;;;;;;;;;;;
2022/11/18 07:38:25;;;;;;;;;;;;;;;;;;;;;
2022/11/18 07:41:30;;;;;;;33.58;18.40;;;5.00;99.90;;;;;;6272453;22;20046;-86
2022/11/18 07:44:57;;;;;;;35.45;18.10;;;5.60;99.90;;;;;;6269542;22;20024;-89
2022/11/18 07:47:46;;;;;;;33.05;18.05;;;5.60;99.90;;;;;;6198353;22;20457;-86
2022/11/18 07:50:31;;;;;;;36.13;18.85;;;5.60;99.90;;;;;;6243273;22;20019;-86
2022/11/18 07:53:21;;;;;;;37.03;20.73;;;5.70;99.90;;;;;;6243268;22;20016;-86
2022/11/18 07:56:21;;;;;;;;;;;;;;;;;;;;;
2022/11/18 07:59:32;;;;;;;34.72;19.65;;;5.20;99.90;;;;;;6269689;22;20082;-87
2022/11/18 08:05:33;;;;;;;37.38;18.85;;;5.60;99.90;;;;;;6191971;22;20055;-86
2022/11/18 08:08:31;;;;;;;;;;;;;;;;;;;;;
2022/11/18 08:11:52;;;;;;;;;;;;;;;;;;;;;
2022/11/18 08:25:09;;;;;;;33.13;18.38;;;5.80;99.90;;;;;;6140198;22;20073;-86
2022/11/18 08:27:53;;;;;;;;;;;;;;;;;;;;;
2022/11/18 08:37:07;;;;;;;;;;;;;;;;;;;;;
2022/11/18 08:39:54;;;;;;;29.75;18.88;;;5.60;99.90;;;;;;6269385;22;20019;-86
2022/11/18 08:42:40;;;;;;;28.88;18.98;;;6.40;99.90;;;;;;6270183;22;20085;-87
2022/11/18 08:45:15;;;;;;;34.88;20.17;;;5.50;99.90;;;;;;6270659;22;20463;-85
2022/11/18 08:47:41;;;;;;;33.58;20.63;;;5.60;99.90;;;;;;6243404;22;20420;-85
2022/11/18 08:50:12;;;;;;;28.45;18.13;;;6.20;99.90;;;;;;6243933;22;20047;-87
2022/11/18 08:52:42;;;;;;;28.27;18.25;;;5.70;99.90;;;;;;6268956;22;20019;-86
2022/11/18 08:55:13;;;;;;;35.13;18.65;;;5.70;99.90;;;;;;6268986;22;20011;-86
2022/11/18 08:58:08;;;;;;;28.67;18.85;;;5.60;99.90;;;;;;6269818;22;20316;-86
2022/11/18 09:00:46;;;;;;;;;;;;;;;;;;;;;
2022/11/18 09:03:19;;;;;;;34.25;20.67;;;5.60;99.90;;;;;;6269752;22;20023;-86
2022/11/18 09:09:50;;;;;;;36.00;20.60;;;6.30;99.90;;;;;;6203266;22;20024;-86
2022/11/18 09:12:29;;;;;;;;;;;;;;;;;;;;;
2022/11/18 09:15:16;;;;;;;33.20;19.30;;;5.70;99.90;;;;;;6268562;22;20081;-87
2022/11/18 09:18:12;;;;;;;;;;;;;;;;;;;;;
2022/11/18 09:21:34;;;;;;;;;;;;;;;;;;;;;
2022/11/18 09:25:16;;;;;;;28.08;17.48;;;5.20;99.90;;;;;;6170928;22;20031;-87
2022/11/18 09:27:54;;;;;;;;;;;;;;;;;;;;;
2022/11/18 09:30:32;;;;;;;;;;;;;;;;;;;;;
2022/11/18 09:33:09;;;;;;;;;;;;;;;;;;;;;
2022/11/18 09:35:35;;;;;;;29.00;15.95;;;6.40;99.90;;;;;;6267929;22;20012;-86
2022/11/18 09:38:00;;;;;;;27.08;15.75;;;5.50;99.90;;;;;;6244253;22;20103;-86
2022/11/18 09:40:27;;;;;;;27.60;15.57;;;6.20;99.90;;;;;;6269517;22;20057;-85
2022/11/18 09:43:17;;;;;;;;;;;;;;;;;;;;;
2022/11/18 09:46:09;;;;;;;;;;;;;;;;;;;;;
2022/11/18 09:52:18;;;;;;;27.13;14.50;;;5.50;99.90;;;;;;6270047;22;20089;-87
2022/11/18 09:54:27;;;;;;;22.50;14.85;;;6.00;99.90;;;;;;6254220;22;20194;-86
2022/11/18 09:57:04;;;;;;;;;;;;;;;;;;;;;
2022/11/18 10:00:18;;;;;;;27.48;16.58;;;5.50;99.90;;;;;;6271614;22;20016;-86
2022/11/18 10:02:31;;;;;;;25.00;14.60;;;5.40;99.90;;;;;;6251801;22;20475;-86
2022/11/18 10:05:19;;;;;;;24.65;15.57;;;5.50;99.90;;;;;;6269104;22;20086;-87
2022/11/18 10:08:11;;;;;;;24.83;15.55;;;5.40;99.90;;;;;;6269368;22;20012;-87
2022/11/18 10:11:07;;;;;;;23.27;15.85;;;5.40;99.90;;;;;;6243064;22;20094;-87
2022/11/18 10:13:57;;;;;;;26.25;14.88;;;5.40;99.90;;;;;;6243774;22;20075;-87
2022/11/18 10:16:52;;;;;;;23.98;14.93;;;5.20;99.90;;;;;;6241933;22;20106;-86
2022/11/18 10:19:50;;;;;;;24.60;14.18;;;5.40;99.90;;;;;;6268966;22;20019;-87
2022/11/18 10:23:04;;;;;;;28.42;14.45;;;5.30;99.90;;;;;;6243510;22;20027;-87
2022/11/18 10:28:46;;;;;;;27.92;15.20;;;6.20;99.90;;;;;;6170588;22;20022;-87
2022/11/18 10:31:12;;;;;;;22.13;14.50;;;5.30;99.90;;;;;;6270673;22;20410;-87
2022/11/18 10:34:21;;;;;;;23.17;14.57;;;6.30;99.90;;;;;;6271938;22;20020;-89
2022/11/18 10:42:59;;;;;;;30.75;17.65;;;5.10;99.90;;;;;;6291240;22;20447;-86
2022/11/18 10:46:12;;;;;;;;;;;;;;;;;;;;;
2022/11/18 10:52:49;;;;;;;;;;;;;;;;;;;;;
2022/11/18 11:03:26;;;;;;;36.42;18.70;;;4.90;99.90;;;;;;6217328;22;20023;-88
2022/11/18 11:22:16;;;;;;;;;;;;;;;;;;;;;
2022/11/18 11:28:12;;;;;;;;;;;;;;;;;;;;;
2022/11/18 11:36:02;;;;;;;;;;;;;;;;;;;;;
2022/11/18 11:38:50;;;;;;;31.17;17.80;;;4.60;99.90;;;;;;6178633;22;20134;-88
2022/11/18 11:42:07;;;;;;;36.50;19.35;;;4.50;99.90;;;;;;6272766;22;20019;-88
2022/11/18 11:45:00;;;;;;;37.50;18.30;;;4.50;99.90;;;;;;6297943;22;20022;-88
2022/11/18 11:48:33;;;;;;;36.85;18.75;;;4.50;99.90;;;;;;6239386;22;20018;-89
2022/11/18 11:52:01;;;;;;;31.33;18.48;;;4.50;99.90;;;;;;6130080;22;20098;-88
2022/11/18 11:54:57;;;;;;;;;;;;;;;;;;;;;
2022/11/18 11:58:16;;;;;;;33.60;18.95;;;4.50;99.90;;;;;;6323219;22;20040;-89
2022/11/18 12:01:29;;;;;;;;;;;;;;;;;;;;;
2022/11/18 12:14:37;;;;;;;34.70;19.13;;;3.60;99.90;;;;;;6179733;22;20450;-87
2022/11/18 12:18:29;;;;;;;;;;;;;;;;;;;;;
2022/11/18 12:22:12;;;;;;;;;;;;;;;;;;;;;
2022/11/18 12:25:11;;;;;;;34.13;18.73;;;4.40;99.90;;;;;;6208127;22;20014;-88
2022/11/18 12:31:56;;;;;;;;;;;;;;;;;;;;;
2022/11/18 12:34:50;;;;;;;;;;;;;;;;;;;;;
2022/11/18 12:37:48;;;;;;;28.40;15.65;;;4.10;99.90;;;;;;6334103;22;20573;-88
2022/11/18 12:43:45;;;;;;;22.60;13.80;;;4.40;99.90;;;;;;6306209;22;20343;-88
2022/11/18 12:44:34;;;;;;;23.65;14.88;;;4.10;99.90;;;;;;6254534;22;20098;-88
2022/11/18 12:48:18;;;;;;;;;;;;;;;;;;;;;
2022/11/18 12:51:23;;;;;;;25.90;15.80;;;3.90;99.90;;;;;;6270150;22;20099;-88
2022/11/18 12:54:20;;;;;;;23.35;14.20;;;4.30;99.90;;;;;;6183935;22;20023;-88
2022/11/18 12:57:46;;;;;;;;;;;;;;;;;;;;;
2022/11/18 13:01:04;;;;;;;;;;;;;;;;;;;;;
2022/11/18 13:03:32;;;;;;;24.10;15.85;;;3.80;99.90;;;;;;6275416;22;20506;-89
2022/11/18 13:06:22;;;;;;;27.23;16.42;;;4.80;99.90;;;;;;6274993;22;20042;-89
2022/11/18 13:08:58;;;;;;;28.33;15.77;;;4.20;99.90;;;;;;6248056;22;20080;-88
2022/11/18 13:11:46;;;;;;;32.55;17.85;;;3.80;99.90;;;;;;6252948;22;20081;-89
2022/11/18 13:17:58;;;;;;;31.95;18.02;;;4.10;99.90;;;;;;6275627;22;20015;-89
2022/11/18 13:20:40;;;;;;;;;;;;;;;;;;;;;
2022/11/18 13:26:22;;;;;;;30.02;18.33;;;4.00;99.90;;;;;;6274231;22;20045;-87
2022/11/18 13:29:12;;;;;;;35.53;19.65;;;4.00;99.90;;;;;;6274385;22;20019;-91
2022/11/18 13:32:32;;;;;;;37.53;19.60;;;3.90;99.90;;;;;;6250999;22;20019;-89
2022/11/18 13:35:20;;;;;;;31.90;19.65;;;3.80;99.90;;;;;;6194353;22;20019;-88
2022/11/18 13:38:20;;;;;;;31.83;19.80;;;3.80;99.90;;;;;;6278396;22;20073;-88
2022/11/18 13:41:23;;;;;;;;;;;;;;;;;;;;;
2022/11/18 13:44:12;;;;;;;34.63;20.00;;;3.70;99.90;;;;;;6299804;22;20098;-87
2022/11/18 13:46:42;;;;;;;39.58;20.10;;;3.60;99.90;;;;;;6272575;22;20540;-88
2022/11/18 13:49:18;;;;;;;36.10;19.40;;;3.60;99.90;;;;;;6273353;22;20022;-88
2022/11/18 13:51:56;;;;;;;;;;;;;;;;;;;;;
2022/11/18 13:54:28;;;;;;;30.50;18.63;;;4.70;99.90;;;;;;6300578;22;20094;-88
2022/11/18 13:56:57;;;;;;;30.80;17.88;;;3.60;99.90;;;;;;6274625;22;20030;-88
2022/11/18 13:59:54;;;;;;;;;;;;;;;;;;;;;
2022/11/18 14:02:48;;;;;;;;;;;;;;;;;;;;;
2022/11/18 14:08:56;;;;;;;;;;;;;;;;;;;;;
2022/11/18 14:12:04;;;;;;;27.00;15.98;;;3.50;99.90;;;;;;6302620;22;20408;-88
2022/11/18 14:14:50;;;;;;;30.00;15.77;;;3.60;99.90;;;;;;6306869;22;20015;-88
2022/11/18 14:21:06;;;;;;;28.20;17.17;;;3.50;99.90;;;;;;6200041;22;20023;-87
2022/11/18 14:23:44;;;;;;;30.30;16.35;;;3.80;99.90;;;;;;6301961;22;20088;-87
2022/11/18 14:26:17;;;;;;;29.05;17.65;;;3.50;99.90;;;;;;6278463;22;20051;-87
2022/11/18 14:29:22;;;;;;;;;;;;;;;;;;;;;
2022/11/18 14:32:58;;;;;;;31.38;18.27;;;3.60;99.90;;;;;;6300448;22;20457;-87
2022/11/18 14:35:19;;;;;;;;;;;;;;;;;;;;;
2022/11/18 14:43:58;;;;;;;;;;;;;;;;;;;;;
2022/11/18 14:46:38;;;;;;;29.05;18.67;;;3.90;99.90;;;;;;6303788;22;20023;-88
2022/11/18 14:49:20;;;;;;;33.25;19.80;;;3.30;99.90;;;;;;6277191;22;20588;-89
2022/11/18 14:51:49;;;;;;;35.72;20.58;;;3.40;99.90;;;;;;6275833;22;20071;-88
2022/11/18 14:54:17;;;;;;;35.40;21.20;;;3.40;99.90;;;;;;6276560;22;20027;-88
2022/11/18 14:56:44;;;;;;;33.17;21.85;;;4.40;99.90;;;;;;6302001;22;20102;-87
2022/11/18 14:59:14;;;;;;;38.58;22.77;;;3.40;99.90;;;;;;6276324;22;20474;-86
2022/11/18 15:01:41;;;;;;;35.70;22.35;;;4.30;99.90;;;;;;6274993;22;20023;-87
2022/11/18 15:04:07;;;;;;;36.72;21.88;;;3.40;99.90;;;;;;6275920;22;20498;-87
2022/11/18 15:06:38;;;;;;;37.33;22.20;;;3.40;99.90;;;;;;6275496;22;20021;-88
2022/11/18 15:09:06;;;;;;;36.63;22.20;;;4.30;99.90;;;;;;6301755;22;20097;-88
2022/11/18 15:11:33;;;;;;;37.15;20.90;;;3.50;99.90;;;;;;6275620;22;20015;-86
2022/11/18 15:13:58;;;;;;;36.58;20.83;;;3.60;99.90;;;;;;6276500;22;20023;-86
2022/11/18 15:16:27;;;;;;;37.78;21.42;;;3.40;99.90;;;;;;6274400;22;20109;-85
2022/11/18 15:18:55;;;;;;;30.98;19.98;;;3.30;99.90;;;;;;6300693;22;20339;-87
2022/11/18 15:21:23;;;;;;;32.65;19.70;;;4.10;99.90;;;;;;6277370;22;20145;-87
2022/11/18 15:23:49;;;;;;;30.83;19.02;;;3.30;99.90;;;;;;6275824;22;20034;-87
2022/11/18 15:26:17;;;;;;;30.42;18.95;;;4.30;99.90;;;;;;6300498;22;20015;-87
2022/11/18 15:28:54;;;;;;;32.17;19.27;;;3.30;99.90;;;;;;6276070;22;20016;-87
2022/11/18 15:31:21;;;;;;;29.48;19.77;;;3.70;99.90;;;;;;6274918;22;20031;-87
2022/11/18 15:33:48;;;;;;;33.22;20.20;;;3.20;99.90;;;;;;6274799;22;20011;-87
2022/11/18 15:36:26;;;;;;;29.42;19.00;;;3.20;99.90;;;;;;6275405;22;20471;-87
2022/11/18 15:38:53;;;;;;;31.55;19.92;;;3.20;99.90;;;;;;6277461;22;20015;-87
2022/11/18 15:41:24;;;;;;;31.55;20.40;;;3.50;99.90;;;;;;6274832;22;20050;-87
2022/11/18 15:43:52;;;;;;;33.53;20.13;;;3.50;99.90;;;;;;6300672;22;20016;-87
2022/11/18 15:46:19;;;;;;;30.63;19.17;;;3.20;99.90;;;;;;6302835;22;20083;-86
2022/11/18 15:48:47;;;;;;;31.45;20.00;;;3.20;99.90;;;;;;6299913;22;20026;-87
2022/11/18 15:51:13;;;;;;;28.05;16.90;;;3.90;99.90;;;;;;6309116;22;20039;-86
2022/11/18 15:53:42;;;;;;;24.92;17.05;;;3.20;99.90;;;;;;6276203;22;20019;-85
2022/11/18 15:56:31;;;;;;;24.38;16.60;;;3.10;99.90;;;;;;6299745;22;20058;-86
2022/11/18 15:59:06;;;;;;;24.33;15.90;;;3.10;99.90;;;;;;6301010;22;20015;-86
2022/11/18 16:01:36;;;;;;;25.23;17.05;;;3.00;99.90;;;;;;6273364;22;20339;-86
2022/11/18 16:04:05;;;;;;;27.48;17.42;;;3.00;99.90;;;;;;6275351;22;20015;-86
2022/11/18 16:06:31;;;;;;;25.75;16.85;;;2.90;99.90;;;;;;6277338;22;20030;-86
2022/11/18 16:09:00;;;;;;;23.95;16.45;;;3.00;99.90;;;;;;6300396;22;20090;-87
2022/11/18 16:14:13;;;;;;;21.48;15.85;;;3.00;99.90;;;;;;6301457;22;20424;-86
2022/11/18 16:16:41;;;;;;;23.70;16.63;;;3.00;99.90;;;;;;6273983;22;20026;-87
2022/11/18 16:19:10;;;;;;;24.45;17.45;;;3.90;99.90;;;;;;6301171;22;20023;-87
2022/11/18 16:21:38;;;;;;;25.25;17.13;;;3.80;99.90;;;;;;6275309;22;20508;-87
2022/11/18 16:24:07;;;;;;;23.63;16.80;;;2.90;99.90;;;;;;6274422;22;20011;-86
2022/11/18 16:26:35;;;;;;;22.45;16.70;;;2.90;99.90;;;;;;6301334;22;20007;-86
2022/11/18 16:29:02;;;;;;;26.08;17.98;;;2.90;99.90;;;;;;6301331;22;20412;-85
2022/11/18 16:31:43;;;;;;;23.92;17.67;;;2.90;99.90;;;;;;6299596;22;20046;-86
2022/11/18 16:34:13;;;;;;;23.65;17.17;;;3.10;99.90;;;;;;6275385;22;20014;-85
2022/11/18 16:36:50;;;;;;;25.83;17.95;;;2.90;99.90;;;;;;6299746;22;20110;-87
2022/11/18 16:39:24;;;;;;;23.90;18.10;;;2.90;99.90;;;;;;6275399;22;20019;-87
2022/11/18 16:41:52;;;;;;;28.60;19.98;;;3.00;99.90;;;;;;6278709;22;20033;-86
2022/11/18 16:44:22;;;;;;;30.45;21.05;;;2.90;99.90;;;;;;6305117;22;20044;-87
2022/11/18 16:46:52;;;;;;;27.63;20.98;;;2.90;99.90;;;;;;6304936;22;20011;-87
2022/11/18 16:49:23;;;;;;;31.70;21.52;;;3.90;99.90;;;;;;6306318;22;20447;-87
2022/11/18 16:51:51;;;;;;;27.95;21.08;;;3.50;99.90;;;;;;6304737;22;20063;-87
2022/11/18 16:54:22;;;;;;;29.35;21.42;;;3.10;99.90;;;;;;6280989;22;20087;-87
2022/11/18 16:56:53;;;;;;;28.80;20.33;;;3.50;99.90;;;;;;6279526;22;20030;-86
2022/11/18 16:59:21;;;;;;;32.67;22.02;;;3.60;99.90;;;;;;6305324;22;20015;-87
2022/11/18 17:01:50;;;;;;;37.58;25.73;;;3.00;99.90;;;;;;6278422;22;20014;-86
2022/11/18 17:04:17;;;;;;;35.28;25.15;;;3.00;99.90;;;;;;6279637;22;20019;-86
2022/11/18 17:06:46;;;;;;;38.53;26.70;;;2.90;99.90;;;;;;6305507;22;20023;-87
2022/11/18 17:09:14;;;;;;;37.78;26.90;;;3.80;99.90;;;;;;6280555;22;20393;-87
2022/11/18 17:11:41;;;;;;;36.70;25.25;;;2.80;99.90;;;;;;6279083;22;20064;-86
2022/11/18 17:14:08;;;;;;;36.13;26.88;;;2.80;99.90;;;;;;6305852;22;20014;-87
2022/11/18 17:16:37;;;;;;;35.90;26.23;;;2.70;99.90;;;;;;6278847;22;20439;-86
2022/11/18 17:19:05;;;;;;;37.72;26.42;;;3.80;99.90;;;;;;6304809;22;20011;-87
2022/11/18 17:21:32;;;;;;;41.10;27.77;;;2.70;99.90;;;;;;6305401;22;20019;-87
2022/11/18 17:23:58;;;;;;;38.05;26.60;;;2.70;99.90;;;;;;6280162;22;20343;-87
2022/11/18 17:26:26;;;;;;;39.45;25.10;;;3.60;99.90;;;;;;6305233;22;20023;-87
2022/11/18 17:28:54;;;;;;;37.28;26.33;;;2.50;99.90;;;;;;6305864;22;20069;-86
2022/11/18 17:31:22;;;;;;;39.05;26.25;;;2.50;99.90;;;;;;6305246;22;20018;-85
2022/11/18 17:33:50;;;;;;;37.03;26.27;;;3.10;99.90;;;;;;6304177;22;20462;-85
2022/11/18 17:36:17;;;;;;;37.00;25.33;;;2.40;99.90;;;;;;6279891;22;20029;-86
2022/11/18 17:38:45;;;;;;;30.70;22.83;;;2.50;99.90;;;;;;6281673;22;20045;-86
2022/11/18 17:44:03;;;;;;;37.88;25.80;;;2.30;99.90;;;;;;6308072;22;20027;-85
2022/11/18 17:46:29;;;;;;;38.63;25.55;;;2.20;99.90;;;;;;6280484;22;20025;-85
2022/11/18 17:48:56;;;;;;;37.50;25.48;;;2.20;99.90;;;;;;6308132;22;20019;-86
2022/11/18 17:51:23;;;;;;;39.78;26.25;;;2.40;99.90;;;;;;6282189;22;20338;-86
2022/11/18 17:53:49;;;;;;;40.08;25.83;;;3.00;99.90;;;;;;6307068;22;20025;-86
2022/11/18 17:56:16;;;;;;;39.00;26.58;;;2.80;99.90;;;;;;6281586;22;20417;-87
2022/11/18 17:58:42;;;;;;;38.13;27.27;;;2.10;99.90;;;;;;6282658;22;20025;-86
2022/11/18 18:01:09;;;;;;;44.55;29.80;;;3.10;99.90;;;;;;6305576;22;20019;-86
2022/11/18 18:03:36;;;;;;;43.58;28.98;;;2.90;99.90;;;;;;6282475;22;20101;-85
2022/11/18 18:06:03;;;;;;;41.22;28.10;;;2.00;99.90;;;;;;6307563;22;20015;-86
2022/11/18 18:08:30;;;;;;;44.92;29.08;;;2.10;99.90;;;;;;6306776;22;20015;-85
2022/11/18 18:11:02;;;;;;;40.30;28.02;;;2.30;99.90;;;;;;6307572;22;20054;-85
2022/11/18 18:16:13;;;;;;;43.50;28.08;;;2.80;99.90;;;;;;6306259;22;20386;-85
2022/11/18 18:18:38;;;;;;;45.42;28.23;;;2.10;99.90;;;;;;6282474;22;20046;-86
2022/11/18 18:21:04;;;;;;;41.95;29.48;;;3.10;99.90;;;;;;6281073;22;20399;-85
2022/11/18 18:23:30;;;;;;;43.50;29.40;;;2.10;99.90;;;;;;6281165;22;20027;-85
2022/11/18 18:26:01;;;;;;;42.65;28.45;;;2.10;99.90;;;;;;6306636;22;20011;-85
2022/11/18 18:28:27;;;;;;;44.03;28.33;;;1.90;99.90;;;;;;6307912;22;20026;-86
2022/11/18 18:30:57;;;;;;;45.38;29.90;;;2.10;99.90;;;;;;6279112;22;20022;-85
2022/11/18 18:33:23;;;;;;;42.10;29.05;;;2.80;99.90;;;;;;6307562;22;20021;-85
2022/11/18 18:35:48;;;;;;;44.13;28.90;;;2.10;99.90;;;;;;6305654;22;20418;-85
2022/11/18 18:38:14;;;;;;;42.15;29.42;;;2.10;99.90;;;;;;6307492;22;20457;-86
2022/11/18 18:40:42;;;;;;;41.83;29.13;;;2.10;99.90;;;;;;6306986;22;20014;-86
2022/11/18 18:43:08;;;;;;;42.65;29.27;;;2.00;99.90;;;;;;6279785;22;20061;-86
2022/11/18 18:48:18;;;;;;;43.67;29.08;;;2.20;99.90;;;;;;6307021;22;20095;-86
2022/11/18 18:50:44;;;;;;;38.10;26.55;;;2.10;99.90;;;;;;6279548;22;20391;-84
2022/11/18 18:53:09;;;;;;;40.78;27.33;;;2.00;99.90;;;;;;6307297;22;20022;-84
2022/11/18 18:55:38;;;;;;;42.13;29.50;;;2.10;99.90;;;;;;6306892;22;20022;-86
2022/11/18 18:58:04;;;;;;;38.17;27.67;;;2.10;99.90;;;;;;6306112;22;20022;-85
2022/11/18 19:00:29;;;;;;;37.67;26.88;;;2.10;99.90;;;;;;6306824;22;20023;-85